Joao Pessoa, Brazil
Current Conditions -  °F | °C
As of 8:00 PM on Tuesday 25 Nov 2014 (Local Time) from SBJP Reporting Station
Few Clouds Few Clouds  
Wind Chill: 79°   Ceiling: Unl
Heat Index: 81°   Visibility: 6mi
Dew Point: 66°   Wind: 10mph
Humidity: 65%   Direction: 110°ESE
Pressure: 29.94"   Gusts: NA
Location:  7.12°S, 34.86°W
Report Text: SBJP 252300Z 11009KT 9999 FEW025 26/19 Q1014
Loading
Personal Weather Stations






























Interactive Weather Map New forecast layout! Learn more

10-Day Weather Forecast

Advertisements
Track Severe Weather on mobile